Latest Weather Observations for Armidale Airport

IDN60801

Issued at 10:02 am EST Sunday 5 July 2015 (issued every 30 minutes, with the page automatically refreshed every 10 minutes)

About weather observations | Map of weather stations | Latest weather observations for NSW | Other Formats
Station Details ID: 056238 Name: ARMIDALE AIRPORT AWS Lat: -30.53 Lon: 151.62 Height: 1079.0 m
Data from the previous 72 hours. | See also: Recent months for locations in New South Wales
Date/Time
EST
Temp
°C
App
Temp
°C
Dew
Point
Rel
Hum
%
Delta-T
°C
Wind Press
QNH
hPa
Press
MSL
hPa
Rain
since 9 am
mm
Dir
 
Spd
km/h
Gust
km/h
Spd
kts
Gust
kts
05/10:00am 10.2 3.9 3.5 63 3.1 WNW 26 37 14 20 1022.6 1022.8 0.0
05/08:30am 4.5 1.5 3.9 96 0.3 NW 9 13 5 7 1022.5 1022.7 0.2
05/08:00am 3.6 0.1 3.3 98 0.1 NW 11 13 6 7 1022.4 1022.6 0.2
05/07:30am 2.6 -0.2 2.3 98 0.1 W 6 7 3 4 1022.4 1022.6 0.2
05/07:00am 2.6 -0.7 2.3 98 0.1 NW 9 13 5 7 1022.2 1022.5 0.2
05/06:30am 1.8 -2.0 1.5 98 0.1 NNW 11 15 6 8 1022.1 1022.4 0.2
05/06:00am 2.9 0.0 2.6 98 0.1 NW 7 9 4 5 1022.0 1022.3 0.2
05/05:30am 3.0 0.3 2.7 98 0.1 NW 6 7 3 4 1021.7 1021.9 0.2
05/05:00am 3.3 0.5 3.0 98 0.1 NW 7 9 4 5 1021.7 1021.9 0.2
05/04:30am 3.3 -0.3 3.0 98 0.1 NW 11 15 6 8 1021.6 1021.8 0.2
05/04:00am 2.3 -1.9 1.7 96 0.2 NW 13 17 7 9 1021.8 1022.0 0.2
05/03:30am 3.0 -0.3 2.3 95 0.3 WNW 9 11 5 6 1021.7 1021.9 0.2
05/03:00am 2.9 0.0 1.7 92 0.5 NW 6 7 3 4 1021.7 1021.9 0.2
05/02:30am 3.8 0.9 2.5 91 0.6 NW 7 7 4 4 1021.7 1021.9 0.2
05/02:00am 3.6 0.3 2.3 91 0.6 NW 9 9 5 5 1022.0 1022.3 0.2
05/01:30am 3.5 0.2 2.2 91 0.6 NW 9 15 5 8 1022.2 1022.5 0.2
05/01:00am 3.8 1.5 2.5 91 0.6 N 4 7 2 4 1022.2 1022.5 0.2
05/12:30am 3.8 0.5 2.2 89 0.7 NW 9 11 5 6 1022.2 1022.5 0.2
05/12:00am 4.5 1.9 3.2 91 0.6 NNW 6 6 3 3 1022.2 1022.5 0.2
 
Date/Time
EST
Temp
°C
App
Temp
°C
Dew
Point
Rel
Hum
%
Delta-T
°C
Wind Press
QNH
hPa
Press
MSL
hPa
Rain
since 9 am
mm
Dir
 
Spd
km/h
Gust
km/h
Spd
kts
Gust
kts
04/11:30pm 3.8 1.1 2.8 93 0.4 NNW 6 6 3 3 1022.4 1022.6 0.2
04/11:00pm 4.5 3.0 3.0 90 0.7 CALM 0 0 0 0 1022.6 1022.8 0.2
04/10:30pm 4.0 2.4 2.2 88 0.8 CALM 0 0 0 0 1022.5 1022.7 0.2
04/10:00pm 4.2 1.4 2.2 87 0.9 W 6 11 3 6 1022.5 1022.7 0.2
04/09:30pm 4.8 3.2 2.7 86 0.9 CALM 0 0 0 0 1022.6 1022.8 0.2
04/09:00pm 5.4 2.5 2.6 82 1.2 WSW 7 11 4 6 1022.6 1022.8 0.2
04/08:30pm 6.0 2.8 2.8 80 1.4 SW 9 11 5 6 1022.6 1022.8 0.2
04/08:00pm 6.2 2.6 2.8 79 1.5 W 11 13 6 7 1022.6 1022.8 0.2
04/07:30pm 6.1 2.4 2.2 76 1.7 WSW 11 15 6 8 1022.6 1022.8 0.2
04/07:00pm 6.4 2.7 2.1 74 1.9 W 11 11 6 6 1022.4 1022.6 0.2
04/06:30pm 7.0 4.2 2.3 72 2.1 WNW 6 9 3 5 1022.2 1022.5 0.2
04/06:00pm 7.0 4.0 2.3 72 2.1 WNW 7 9 4 5 1022.0 1022.3 0.2
04/05:30pm 7.6 3.9 2.3 69 2.4 W 11 13 6 7 1021.9 1022.2 0.2
04/05:00pm 8.8 4.7 2.2 63 2.9 WNW 13 19 7 10 1021.7 1021.9 0.2
04/04:30pm 9.5 4.6 1.7 58 3.5 WNW 17 26 9 14 1021.7 1021.9 0.2
04/04:00pm 10.8 5.3 1.6 53 4.1 WNW 20 28 11 15 1021.7 1021.9 0.2
04/03:30pm 10.8 5.8 1.1 51 4.3 WNW 17 24 9 13 1021.7 1021.9 0.2
04/03:00pm 10.9 4.4 0.3 48 4.6 WNW 24 30 13 16 1021.5 1021.7 0.2
04/02:30pm 10.8 4.1 1.4 52 4.2 WNW 26 32 14 17 1021.5 1021.7 0.2
04/02:00pm 11.0 4.7 1.8 53 4.1 WNW 24 33 13 18 1021.7 1021.9 0.0
04/01:30pm 10.6 3.5 1.4 53 4.1 NW 28 33 15 18 1021.9 1022.2 0.0
04/01:00pm 10.6 3.4 0.9 51 4.3 WNW 28 35 15 19 1022.4 1022.6 0.0
04/12:30pm 10.6 3.1 1.2 52 4.2 WNW 30 41 16 22 1022.8 1023.1 0.0
04/12:00pm 10.1 2.9 0.4 51 4.2 WNW 28 44 15 24 1023.2 1023.5 0.0
04/11:30am 9.6 2.7 2.5 61 3.2 WNW 28 37 15 20 1023.8 1024.1 0.0
04/11:00am 9.9 3.8 2.5 60 3.4 WNW 24 30 13 16 1023.9 1024.2 0.0
04/10:30am 9.5 3.8 2.8 63 3.1 WNW 22 30 12 16 1024.2 1024.6 0.0
04/10:00am 9.1 3.9 3.7 69 2.5 WNW 20 26 11 14 1024.6 1024.9 0.0
04/09:30am 8.1 4.0 4.3 77 1.8 WNW 15 20 8 11 1024.6 1024.9 0.0
04/09:00am 6.8 3.0 3.9 82 1.3 NW 13 15 7 8 1024.5 1024.8 0.0
04/08:30am 5.2 2.1 3.7 90 0.7 NW 9 11 5 6 1024.4 1024.7 0.0
04/08:00am 2.6 -0.2 2.3 98 0.1 WNW 6 7 3 4 1024.0 1024.3 0.0
04/07:30am 1.8 0.0 1.4 97 0.2 CALM 0 0 0 0 1023.8 1024.1 0.0
04/07:00am 1.4 -0.4 1.1 98 0.1 CALM 0 0 0 0 1023.7 1024.0 0.0
04/06:30am 0.9 -2.1 0.6 98 0.1 W 6 9 3 5 1023.4 1023.6 0.0
04/06:00am 0.1 -3.2 -0.2 98 0.1 WSW 7 9 4 5 1023.4 1023.6 0.0
04/05:30am 0.5 -2.6 0.4 99 0.0 NW 6 7 3 4 1023.2 1023.5 0.0
04/05:00am 0.6 -2.4 0.5 99 0.0 NE 6 7 3 4 1023.0 1023.3 0.0
04/04:30am -1.0 -5.2 -1.1 99 0.0 NE 11 13 6 7 1022.9 1023.2 0.0
04/04:00am -0.2 -4.7 -0.3 99 0.0 NE 13 15 7 8 1022.8 1023.1 0.0
04/03:30am -0.7 -5.3 -0.8 99 0.0 NE 13 15 7 8 1023.0 1023.3 0.0
04/03:00am -0.2 -5.1 -0.3 99 0.0 NE 15 17 8 9 1023.0 1023.3 0.0
04/02:44am 0.1 -5.1 0.0 99 0.0 NE 17 17 9 9 1023.2 1023.5 0.0
04/02:30am -0.4 -5.3 -0.5 99 0.0 NE 15 15 8 8 1023.5 1023.8 0.0
04/02:19am -0.3 -4.8 -0.4 99 0.0 NE 13 15 7 8 1023.6 1023.9 0.0
04/02:00am -0.4 -4.9 -0.5 99 0.0 NE 13 13 7 7 1023.9 1024.2 0.0
04/01:30am 0.1 -4.0 0.0 99 0.0 ENE 11 11 6 6 1024.1 1024.4 0.0
04/01:00am 0.7 -4.0 0.6 99 0.0 NE 15 17 8 9 1024.1 1024.4 0.0
04/12:30am 1.6 -3.0 1.5 99 0.0 NE 15 17 8 9 1024.1 1024.4 0.0
04/12:00am 1.9 -2.7 1.8 99 0.0 NE 15 17 8 9 1024.4 1024.7 0.0
 
Date/Time
EST
Temp
°C
App
Temp
°C
Dew
Point
Rel
Hum
%
Delta-T
°C
Wind Press
QNH
hPa
Press
MSL
hPa
Rain
since 9 am
mm
Dir
 
Spd
km/h
Gust
km/h
Spd
kts
Gust
kts
03/11:30pm 1.2 -3.1 1.1 99 0.0 NNE 13 15 7 8 1024.7 1025.0 0.0
03/11:00pm 0.6 -3.4 0.3 98 0.1 NE 11 13 6 7 1024.5 1024.8 0.0
03/10:30pm 0.9 -3.5 0.6 98 0.1 NE 13 15 7 8 1024.4 1024.7 0.0
03/10:00pm 0.7 -4.1 0.4 98 0.1 NE 15 15 8 8 1024.5 1024.8 0.0
03/09:30pm 1.4 -2.1 1.1 98 0.1 E 9 11 5 6 1024.7 1025.0 0.0
03/09:00pm 1.7 -2.5 1.4 98 0.1 E 13 13 7 7 1024.8 1025.1 0.0
03/08:30pm 2.2 -1.7 1.0 92 0.5 E 11 13 6 7 1024.7 1025.0 0.0
03/08:00pm 3.9 0.4 1.3 83 1.1 ESE 9 11 5 6 1024.8 1025.1 0.0
03/07:30pm 4.9 1.5 1.7 80 1.4 SE 9 11 5 6 1024.5 1024.8 0.0
03/07:00pm 5.2 1.7 1.5 77 1.6 SE 9 11 5 6 1024.5 1024.8 0.0
03/06:30pm 5.8 2.0 1.5 74 1.8 SE 11 17 6 9 1024.2 1024.6 0.0
03/06:00pm 7.1 3.3 2.0 70 2.2 SE 11 17 6 9 1024.4 1024.7 0.0
03/05:30pm 7.5 3.4 2.2 69 2.3 SE 13 17 7 9 1024.0 1024.3 0.0
03/05:00pm 7.6 3.1 1.9 67 2.5 ESE 15 20 8 11 1023.7 1024.0 0.0
03/04:30pm 8.3 3.4 1.9 64 2.8 ESE 17 24 9 13 1023.8 1024.1 0.0
03/04:00pm 8.9 4.4 2.3 63 2.9 ESE 15 22 8 12 1023.7 1024.0 0.0
03/03:30pm 9.0 3.9 3.2 67 2.7 ESE 19 24 10 13 1023.5 1023.8 0.0
03/03:00pm 9.2 5.1 2.5 63 3.0 ESE 13 17 7 9 1023.4 1023.6 0.0
03/02:30pm 10.2 5.4 2.8 60 3.4 E 17 22 9 12 1023.2 1023.5 0.0
03/02:00pm 9.7 5.3 2.8 62 3.1 ESE 15 22 8 12 1023.2 1023.5 0.0
03/01:30pm 9.6 4.4 2.7 62 3.1 ESE 19 28 10 15 1023.1 1023.4 0.0
03/01:00pm 9.0 3.9 2.8 65 2.8 SE 19 28 10 15 1023.2 1023.5 0.0
03/12:30pm 8.1 1.5 2.1 66 2.7 ESE 26 35 14 19 1023.1 1023.4 0.0
03/12:00pm 8.4 2.4 3.1 69 2.4 SE 24 32 13 17 1023.6 1023.9 0.0
03/11:30am 8.2 2.2 3.3 71 2.2 ESE 24 32 13 17 1024.0 1024.3 0.0
03/11:00am 7.3 1.2 2.6 72 2.1 ESE 24 35 13 19 1024.2 1024.6 0.0
03/10:30am 6.8 1.1 3.1 77 1.7 ESE 22 32 12 17 1024.2 1024.6 0.0
03/10:00am 5.6 0.5 3.1 84 1.1 E 19 24 10 13 1024.5 1024.8 0.0
03/09:39am 4.6 0.6 2.8 88 0.8 E 13 15 7 8 1024.5 1024.8 0.0
03/09:30am 3.5 -0.6 2.0 90 0.6 ENE 13 17 7 9 1024.4 1024.7 0.0
03/09:00am 2.3 -1.8 2.0 98 0.1 ENE 13 17 7 9 1023.9 1024.2 0.0
03/08:30am 1.3 -2.6 1.0 98 0.1 NE 11 17 6 9 1023.1 1023.4 0.0
03/08:00am -0.3 -4.5 -0.6 98 0.1 ENE 11 13 6 7 1023.1 1023.4 0.0
03/07:52am -0.3 -4.8 -0.6 98 0.1 ENE 13 17 7 9 1022.9 1023.2 0.0
03/07:30am 0.0 -3.7 -0.3 98 0.1 SE 9 13 5 7 1022.9 1023.2 0.0
03/07:29am 0.1 -3.6 -0.2 98 0.1 SE 9 15 5 8 1022.8 1023.1 0.0
03/07:17am 0.0 -4.5 -0.3 98 0.1 SE 13 19 7 10 1022.8 1023.1 0.0
03/07:00am -2.3 -6.3 -2.6 98 0.0 E 9 11 5 6 1022.8 1023.1 0.0
03/06:30am -0.6 -4.8 -0.9 98 0.1 SSE 11 15 6 8 1022.4 1022.6 0.0
03/06:00am -0.8 -4.1 -0.9 99 0.0 SE 6 7 3 4 1022.1 1022.4 0.0
03/05:30am -0.4 -3.8 -0.5 99 0.0 S 7 9 4 5 1021.6 1021.8 0.0
03/05:00am -1.4 -4.0 -1.5 99 0.0 S 2 7 1 4 1021.5 1021.7 0.0
03/04:41am -1.5 -3.7 -1.6 99 0.0 CALM 0 2 0 1 1021.4 1021.6 0.0
03/04:30am -1.4 -4.4 -1.5 99 0.0 SE 4 7 2 4 1021.3 1021.5 0.0
03/04:10am -2.4 -5.1 -2.7 98 0.0 WSW 2 9 1 5 1021.3 1021.5 0.0
03/04:00am -0.8 -4.6 -0.9 99 0.0 SW 9 11 5 6 1021.1 1021.4 0.0
03/03:30am -0.6 -4.4 -0.7 99 0.0 W 9 11 5 6 1021.1 1021.4 0.0
03/03:11am -0.9 -4.7 -1.0 99 0.0 W 9 9 5 5 1021.0 1021.2 0.0
03/03:00am -1.0 -4.3 -1.3 98 0.1 W 6 9 3 5 1021.1 1021.4 0.0
03/02:30am -1.2 -4.5 -1.5 98 0.1 W 6 9 3 5 1021.0 1021.2 0.0
03/02:00am -0.2 -4.3 -0.5 98 0.1 WSW 11 11 6 6 1021.1 1021.4 0.0
03/01:30am 0.5 -4.7 0.2 98 0.1 WSW 17 20 9 11 1021.4 1021.6 0.0
03/01:00am 1.4 -4.0 1.1 98 0.1 SW 19 22 10 12 1021.7 1021.9 0.0
03/12:30am 2.1 -2.6 1.2 94 0.4 WSW 15 20 8 11 1021.7 1021.9 0.0
03/12:00am 2.3 -1.1 2.0 98 0.1 W 9 15 5 8 1021.9 1022.2 0.0
 
Date/Time
EST
Temp
°C
App
Temp
°C
Dew
Point
Rel
Hum
%
Delta-T
°C
Wind Press
QNH
hPa
Press
MSL
hPa
Rain
since 9 am
mm
Dir
 
Spd
km/h
Gust
km/h
Spd
kts
Gust
kts
02/11:30pm 2.5 -0.9 1.9 96 0.3 WNW 9 11 5 6 1022.1 1022.4 0.0
02/11:00pm 2.3 -1.6 1.1 92 0.5 W 11 19 6 10 1022.6 1022.8 0.0
02/10:30pm 3.2 -1.4 1.4 88 0.7 WSW 15 20 8 11 1022.5 1022.7 0.0
02/10:00pm 2.5 -3.0 0.9 89 0.6 W 19 22 10 12 1022.2 1022.5 0.0
02/09:30pm 3.1 -1.9 1.5 89 0.7 W 17 24 9 13 1022.4 1022.6 0.0
02/09:00pm 3.0 -2.3 1.7 91 0.5 W 19 26 10 14 1022.6 1022.8 0.0
02/08:30pm 3.5 -1.4 2.2 91 0.6 W 17 24 9 13 1022.7 1023.0 0.0
02/08:00pm 3.1 -2.3 2.2 94 0.4 W 20 26 11 14 1022.5 1022.7 0.0
02/07:30pm 2.5 -2.9 1.3 92 0.5 W 19 24 10 13 1022.1 1022.4 0.0
02/07:00pm 3.0 -3.0 1.1 87 0.8 W 22 28 12 15 1021.8 1022.0 0.0
02/06:30pm 3.3 -3.6 0.4 81 1.2 W 26 35 14 19 1021.6 1021.8 0.0
02/06:00pm 2.7 -5.1 -1.1 76 1.5 W 30 35 16 19 1020.9 1021.1 0.0
02/05:30pm 3.4 -3.5 -2.7 64 2.3 WNW 24 30 13 16 1019.9 1020.1 0.0
02/05:00pm 4.6 -2.8 -3.4 56 3.0 WNW 26 32 14 17 1019.5 1019.7 0.0
02/04:30pm 6.7 -0.7 -3.8 47 4.0 W 26 39 14 21 1019.9 1020.1 0.0
02/04:00pm 8.0 -0.3 -5.4 38 5.0 W 30 37 16 20 1019.6 1019.8 0.0
02/03:30pm 8.3 0.3 -2.3 47 4.2 WNW 30 37 16 20 1019.4 1019.5 0.0
02/03:00pm 8.4 1.5 -0.1 55 3.6 WNW 26 32 14 17 1019.7 1019.9 0.0
02/02:30pm 8.4 1.8 -0.6 53 3.8 W 24 32 13 17 1019.7 1019.9 0.0
02/02:00pm 8.7 1.5 -1.7 48 4.2 W 26 35 14 19 1019.6 1019.8 0.0
02/01:30pm 8.1 0.8 -3.1 45 4.4 W 26 37 14 20 1019.8 1020.0 0.0
02/01:00pm 8.5 1.3 -1.9 48 4.2 W 26 32 14 17 1020.1 1020.3 0.0
02/12:30pm 8.1 0.7 -3.4 44 4.5 W 26 33 14 18 1020.1 1020.3 0.0
02/12:00pm 8.1 1.4 -1.4 51 3.9 WNW 24 30 13 16 1020.5 1020.7 0.0
02/11:30am 8.4 1.8 -0.6 53 3.8 WNW 24 30 13 16 1021.0 1021.2 0.0
02/11:00am 6.5 0.4 0.2 64 2.6 WNW 22 28 12 15 1021.6 1021.8 0.0
02/10:30am 6.3 -0.1 0.8 68 2.3 WNW 24 30 13 16 1021.8 1022.0 0.0

Other Formats:

Comma delimited format used in spreadsheet applications
http://www.bom.gov.au/fwo/IDN60801/IDN60801.95773.axf

JavaScript Object Notation format (JSON) in row-major order
http://www.bom.gov.au/fwo/IDN60801/IDN60801.95773.json